Terminal Aerodrome Forecast
Issued by NWS

Home | Current Version | Previous Version | Text Only | Print | Product List | Glossary On
Versions: 1 2 3 4 5 6 7 8 9 10 11 12 13 14 15 16 17 18
163
FTUS45 KVEF 302327
TAFDAG
TAF
KDAG 302327Z 0100/0124 01014KT P6SM VCSH OVC060
     FM010600 25011KT P6SM BKN100=

USA.gov is the U.S. government's official web portal to all federal, state and local government web resources and services.